Hlavní strana
METAR-TAF:

METAR-TAF

Letiště :

Montgomery, Alabama, Spojené státy americké

zeměpisná šířka: 32-18-01N, zeměpisná délka: 086-24-22W, výška: 67 m

Aktuální stav počasí

Zpráva byla vytvořena před 9 minutami, v 10:53 UTC
Bezvětří
Teplota 21°C
Vlhkost vzduchu 94%
Tlak 1021 hPa
Viditelnost: 6.4 km
Oblačno až skoro zataženo ve výšce 6000 ft
kouřmo

METAR: KMGM 241053Z AUTO 00000KT 4SM BR BKN060 21/20 A3015 RMK AO2 SLP207 T02110200

Čas: 06:02 (11:02 UTC)

Předpověď počasí

Zpráva byla vytvořena před 5 hodinami a 42 minutami, v 05:20 UTC
Předpověď platná od 24 v 06 UTC do 25 v 06 UTC
Severní vítr kt
Viditelnost: 10 km
Jasno
Dočasný
od 24 v 10 UTC do 24 v 13 UTC
Viditelnost: 8.0 km
kouřmo
Od 24 v 1500 UTC
vítr z různých směrů 5 kt
Viditelnost: 10 km
Polojasno ve výšce 6000 ft

TAF: KMGM 240520Z 2406/2506 00000KT P6SM SKC TEMPO 2410/2413 5SM BR FM241500 VRB05KT P6SM SCT060

Stav a předpovědi počasí z více než 4 000 letišť (zprávy METAR a TAF).

Červené a žluté tečky na mapě představují dostupné meteorologické stanice.

Když kurzor umístíte na tečku, zobrazí se název stanice.

Pak kliknutím zobrazíte stav a předpověď počasí.

Chcete-li změnit mapu, kliknutím na zelené tlačítko se znaménkem +mapu přiblížíte, kliknutím na zelené tlačítko se znaménkem – mapu oddálíte a kliknutím na zelené šipky přejdete na sousední mapy.


METAR-TAF: